Time;durP1;ratioP1;P1;durP2;ratioP2;P2;SDS_P1;SDS_P2;PMS_P1;PMS_P2;Temp;Humidity;BMP_temperature;BMP_pressure;BME280_temperature;BME280_humidity;BME280_pressure;Samples;Min_cycle;Max_cycle;Signal;HPM_P1;HPM_P2
2021/12/30 00:01:22;;;;;;;70.13;10.47;;;12.10;99.90;;;;;;5102267;27;20410;-74
2021/12/30 00:03:48;;;;;;;75.82;11.02;;;12.20;99.90;;;;;;5097318;28;20476;-73
2021/12/30 00:06:17;;;;;;;65.25;10.20;;;12.20;99.90;;;;;;5110773;27;20459;-72
2021/12/30 00:08:43;;;;;;;70.15;10.55;;;12.20;99.90;;;;;;5121989;27;20418;-72
2021/12/30 00:11:09;;;;;;;72.13;10.30;;;12.30;99.90;;;;;;5116993;27;20415;-73
2021/12/30 00:13:35;;;;;;;69.32;10.02;;;12.30;99.90;;;;;;5118173;27;20420;-72
2021/12/30 00:16:01;;;;;;;62.20;9.93;;;12.30;99.90;;;;;;5093447;28;20436;-72
2021/12/30 00:18:27;;;;;;;60.45;9.55;;;12.40;99.90;;;;;;5117555;27;20396;-72
2021/12/30 00:20:54;;;;;;;61.72;10.18;;;12.30;99.90;;;;;;5108731;27;20400;-73
2021/12/30 00:23:19;;;;;;;62.28;10.63;;;12.30;99.90;;;;;;5107968;27;20832;-72
2021/12/30 00:25:45;;;;;;;60.17;9.40;;;12.30;99.90;;;;;;5113881;27;20407;-73
2021/12/30 00:28:16;;;;;;;63.35;9.90;;;12.40;99.90;;;;;;5110896;27;20896;-72
2021/12/30 00:30:44;;;;;;;59.88;9.55;;;12.40;99.90;;;;;;5110134;27;20403;-73
2021/12/30 00:33:10;;;;;;;65.65;10.13;;;12.40;99.90;;;;;;5110429;27;20412;-72
2021/12/30 00:35:35;;;;;;;56.67;9.70;;;12.40;99.90;;;;;;5110758;27;20414;-72
2021/12/30 00:38:02;;;;;;;59.08;9.93;;;12.40;99.90;;;;;;5124040;27;20407;-72
2021/12/30 00:40:28;;;;;;;57.00;9.05;;;12.50;99.90;;;;;;5108900;27;20415;-71
2021/12/30 00:42:54;;;;;;;56.10;9.43;;;12.50;99.90;;;;;;5109294;28;20415;-72
2021/12/30 00:45:19;;;;;;;63.10;9.40;;;12.50;99.90;;;;;;5111265;27;20439;-71
2021/12/30 00:47:45;;;;;;;64.90;9.35;;;12.50;99.90;;;;;;5104956;27;21035;-72
2021/12/30 00:50:11;;;;;;;61.70;9.73;;;12.50;99.90;;;;;;5106747;28;20431;-73
2021/12/30 00:52:37;;;;;;;55.47;9.38;;;12.50;99.90;;;;;;5124446;27;20428;-71
2021/12/30 00:55:06;;;;;;;54.00;9.50;;;12.50;99.90;;;;;;5112633;27;20461;-72
2021/12/30 00:57:32;;;;;;;56.45;9.90;;;12.50;99.90;;;;;;5108304;27;20922;-74
2021/12/30 00:59:58;;;;;;;64.43;10.43;;;12.60;99.90;;;;;;5110948;27;20404;-72
2021/12/30 01:02:23;;;;;;;59.83;10.18;;;12.60;99.90;;;;;;5106444;27;21308;-74
2021/12/30 01:04:49;;;;;;;58.60;10.20;;;12.60;99.90;;;;;;5110704;28;20408;-72
2021/12/30 01:07:15;;;;;;;65.07;10.10;;;12.60;99.90;;;;;;5105055;28;20450;-71
2021/12/30 01:09:41;;;;;;;64.53;10.38;;;12.60;99.90;;;;;;5110679;28;20778;-72
2021/12/30 01:12:07;;;;;;;71.68;10.68;;;12.70;99.90;;;;;;5112159;27;20416;-72
2021/12/30 01:14:35;;;;;;;71.15;10.57;;;12.70;99.90;;;;;;5109357;27;20407;-72
2021/12/30 01:17:14;;;;;;;80.18;11.20;;;12.80;99.90;;;;;;5108781;27;20412;-72
2021/12/30 01:19:43;;;;;;;65.63;10.18;;;12.80;99.90;;;;;;5119696;27;20411;-72
2021/12/30 01:22:12;;;;;;;64.80;9.93;;;12.90;99.90;;;;;;5115178;27;20423;-72
2021/12/30 01:24:38;;;;;;;71.43;10.90;;;12.90;99.90;;;;;;5108210;28;20408;-73
2021/12/30 01:27:04;;;;;;;68.03;10.88;;;12.90;99.90;;;;;;5108498;28;20465;-73
2021/12/30 01:29:30;;;;;;;71.90;10.83;;;12.90;99.90;;;;;;5116558;27;20398;-74
2021/12/30 01:31:57;;;;;;;73.47;10.90;;;13.00;99.90;;;;;;5110599;27;20916;-72
2021/12/30 01:34:22;;;;;;;70.38;11.00;;;13.00;99.90;;;;;;5110388;27;20408;-71
2021/12/30 01:36:49;;;;;;;79.70;11.20;;;13.00;99.90;;;;;;5109107;27;20392;-72
2021/12/30 01:39:17;;;;;;;71.47;10.68;;;13.00;99.90;;;;;;5109518;27;20426;-72
2021/12/30 01:41:44;;;;;;;79.17;11.60;;;13.00;99.90;;;;;;5108396;28;20436;-72
2021/12/30 01:44:10;;;;;;;67.13;10.77;;;13.00;99.90;;;;;;5104895;28;20833;-71
2021/12/30 01:46:40;;;;;;;68.13;10.07;;;13.00;99.90;;;;;;5108568;28;20454;-71
2021/12/30 01:49:07;;;;;;;60.15;9.57;;;13.10;99.90;;;;;;5117269;27;20423;-72
2021/12/30 01:51:32;;;;;;;70.35;9.93;;;13.10;99.90;;;;;;5116563;27;20400;-73
2021/12/30 01:53:58;;;;;;;59.40;9.43;;;13.10;99.90;;;;;;5111359;27;20452;-72
2021/12/30 01:56:24;;;;;;;54.60;8.77;;;13.00;99.90;;;;;;5105661;27;20919;-72
2021/12/30 01:58:50;;;;;;;55.73;8.53;;;13.00;99.90;;;;;;5115115;27;20475;-73
2021/12/30 02:01:16;;;;;;;47.50;7.80;;;13.00;99.90;;;;;;5094081;28;20404;-72
2021/12/30 02:03:41;;;;;;;44.63;7.80;;;13.00;99.90;;;;;;5113375;27;20416;-72
2021/12/30 02:06:07;;;;;;;46.92;7.55;;;13.00;99.90;;;;;;5107869;27;20404;-72
2021/12/30 02:08:32;;;;;;;46.67;8.20;;;13.00;99.90;;;;;;5108984;27;20514;-73
2021/12/30 02:10:58;;;;;;;41.80;8.30;;;13.10;99.90;;;;;;5108051;27;20463;-72
2021/12/30 02:13:24;;;;;;;41.75;8.18;;;13.10;99.90;;;;;;5110729;27;20842;-72
2021/12/30 02:15:50;;;;;;;40.13;7.47;;;13.10;99.90;;;;;;5111394;27;20453;-72
2021/12/30 02:18:16;;;;;;;33.78;7.15;;;13.10;99.90;;;;;;5109328;27;20235;-72
2021/12/30 02:20:46;;;;;;;33.80;6.53;;;12.70;99.90;;;;;;5112533;27;20189;-72
2021/12/30 02:23:15;;;;;;;38.38;7.40;;;12.50;99.90;;;;;;5105414;28;20189;-73
2021/12/30 02:25:41;;;;;;;34.80;7.40;;;12.20;99.90;;;;;;5097257;27;20185;-72
2021/12/30 02:28:09;;;;;;;35.67;8.02;;;12.10;99.90;;;;;;5112402;27;20418;-72
2021/12/30 02:30:36;;;;;;;36.70;8.52;;;12.50;99.90;;;;;;5120059;27;20477;-72
2021/12/30 02:33:02;;;;;;;30.85;8.05;;;12.70;99.90;;;;;;5114191;27;20412;-75
2021/12/30 02:35:28;;;;;;;32.60;8.75;;;12.90;99.90;;;;;;5112255;27;20415;-73
2021/12/30 02:37:53;;;;;;;40.40;9.93;;;13.00;99.90;;;;;;5111031;27;20398;-73
2021/12/30 02:40:28;;;;;;;32.55;9.18;;;13.00;99.90;;;;;;5120227;27;20416;-74
2021/12/30 02:42:54;;;;;;;38.20;10.98;;;13.00;99.90;;;;;;5112985;27;20440;-74
2021/12/30 02:45:19;;;;;;;42.72;10.60;;;13.10;99.90;;;;;;5116666;27;20410;-72
2021/12/30 02:47:45;;;;;;;38.92;11.27;;;13.10;99.90;;;;;;5111649;27;20473;-72
2021/12/30 02:50:11;;;;;;;35.13;9.30;;;13.10;99.90;;;;;;5113194;27;20404;-71
2021/12/30 02:52:36;;;;;;;42.88;9.80;;;13.10;99.90;;;;;;5106595;28;20788;-72
2021/12/30 02:55:03;;;;;;;35.50;11.25;;;13.00;99.90;;;;;;5108539;28;20411;-73
2021/12/30 02:57:28;;;;;;;36.92;10.38;;;13.00;99.90;;;;;;5091572;27;20458;-72
2021/12/30 02:59:54;;;;;;;33.90;11.57;;;13.00;99.90;;;;;;5109710;27;20446;-71
2021/12/30 03:02:20;;;;;;;38.25;10.07;;;13.10;99.90;;;;;;5106787;28;20438;-73
2021/12/30 03:04:45;;;;;;;38.37;9.67;;;13.10;99.90;;;;;;5111249;27;20883;-73
2021/12/30 03:07:11;;;;;;;42.67;9.73;;;13.00;99.90;;;;;;5090849;28;20412;-73
2021/12/30 03:09:37;;;;;;;41.00;9.48;;;13.00;99.90;;;;;;5117484;27;20736;-75
2021/12/30 03:12:03;;;;;;;38.63;10.17;;;13.00;99.90;;;;;;5138038;27;20420;-73
2021/12/30 03:14:29;;;;;;;36.47;10.65;;;13.00;99.90;;;;;;5113089;27;20407;-72
2021/12/30 03:16:55;;;;;;;43.95;9.80;;;13.00;99.90;;;;;;5089737;28;20416;-71
2021/12/30 03:19:20;;;;;;;43.57;11.20;;;13.00;99.90;;;;;;5104795;28;20473;-72
2021/12/30 03:21:46;;;;;;;47.40;11.25;;;13.00;99.90;;;;;;5111554;27;20562;-72
2021/12/30 03:24:12;;;;;;;54.90;11.20;;;13.00;99.90;;;;;;5105955;28;20407;-71
2021/12/30 03:26:38;;;;;;;42.92;12.05;;;12.90;99.90;;;;;;5115817;28;20406;-72
2021/12/30 03:29:05;;;;;;;54.77;13.10;;;13.00;99.90;;;;;;5107599;28;20926;-71
2021/12/30 03:31:31;;;;;;;61.80;12.13;;;12.90;99.90;;;;;;5106706;28;20439;-72
2021/12/30 03:33:57;;;;;;;46.38;12.20;;;13.00;99.90;;;;;;5108141;28;21025;-73
2021/12/30 03:36:23;;;;;;;44.57;13.03;;;13.00;99.90;;;;;;5107656;28;20919;-72
2021/12/30 03:38:51;;;;;;;47.58;11.18;;;13.00;99.90;;;;;;5111052;28;20404;-72
2021/12/30 03:41:20;;;;;;;42.17;10.95;;;13.00;99.90;;;;;;5106987;28;20408;-72
2021/12/30 03:43:46;;;;;;;50.33;11.40;;;13.00;99.90;;;;;;5116118;28;20440;-72
2021/12/30 03:46:12;;;;;;;45.87;12.33;;;13.00;99.90;;;;;;5107760;28;20452;-72
2021/12/30 03:48:42;;;;;;;52.78;11.32;;;13.00;99.90;;;;;;5112157;27;20412;-72
2021/12/30 03:51:20;;;;;;;44.78;12.43;;;13.00;99.90;;;;;;5092146;28;20472;-73
2021/12/30 03:53:49;;;;;;;42.40;9.73;;;13.00;99.90;;;;;;5113560;28;20833;-72
2021/12/30 03:56:17;;;;;;;40.17;10.23;;;13.00;99.90;;;;;;5104662;28;20812;-74
2021/12/30 03:58:44;;;;;;;33.33;10.10;;;13.00;99.90;;;;;;5106112;28;20842;-74
2021/12/30 04:01:12;;;;;;;30.90;10.40;;;13.00;99.90;;;;;;5109417;28;20798;-73
2021/12/30 04:03:38;;;;;;;38.87;9.53;;;13.00;99.90;;;;;;5109431;28;20434;-75
2021/12/30 04:06:04;;;;;;;37.75;9.82;;;13.10;99.90;;;;;;5111796;28;20422;-73
2021/12/30 04:08:29;;;;;;;38.47;9.80;;;13.00;99.90;;;;;;5109570;28;20430;-72
2021/12/30 04:10:56;;;;;;;37.17;8.90;;;13.10;99.90;;;;;;5112150;28;20407;-74
2021/12/30 04:13:22;;;;;;;44.83;9.90;;;13.00;99.90;;;;;;5118190;28;20418;-72
2021/12/30 04:15:48;;;;;;;39.70;9.65;;;13.00;99.90;;;;;;5114582;28;20572;-71
2021/12/30 04:18:13;;;;;;;45.33;9.95;;;13.00;99.90;;;;;;5107301;28;20400;-72
2021/12/30 04:20:39;;;;;;;40.73;10.60;;;13.10;99.90;;;;;;5106241;28;20408;-74
2021/12/30 04:23:04;;;;;;;40.13;10.80;;;13.10;99.90;;;;;;5112918;28;20418;-72
2021/12/30 04:25:30;;;;;;;40.65;9.93;;;13.10;99.90;;;;;;5113893;28;20408;-72
2021/12/30 04:27:56;;;;;;;41.77;9.70;;;13.10;99.90;;;;;;5110185;28;20434;-74
2021/12/30 04:30:21;;;;;;;39.08;8.02;;;13.10;99.90;;;;;;5108213;27;20408;-73
2021/12/30 04:32:47;;;;;;;37.40;8.07;;;13.10;99.90;;;;;;5114661;27;20402;-74
2021/12/30 04:35:13;;;;;;;32.97;7.50;;;13.20;99.90;;;;;;5113746;27;21002;-73
2021/12/30 04:37:39;;;;;;;43.75;8.57;;;13.20;99.90;;;;;;5108324;27;20405;-73
2021/12/30 04:40:06;;;;;;;39.17;8.02;;;13.20;99.90;;;;;;5104859;28;20424;-74
2021/12/30 04:42:32;;;;;;;41.75;8.52;;;13.20;99.90;;;;;;5108718;27;20499;-74
2021/12/30 04:44:58;;;;;;;38.33;8.90;;;13.20;99.90;;;;;;5110272;28;20549;-74
2021/12/30 04:47:25;;;;;;;47.00;8.60;;;13.20;99.90;;;;;;5109737;27;20411;-73
2021/12/30 04:49:52;;;;;;;44.90;8.40;;;13.20;99.90;;;;;;5107843;27;20431;-74
2021/12/30 04:52:18;;;;;;;47.58;8.13;;;13.20;99.90;;;;;;5090227;28;20456;-73
2021/12/30 04:54:43;;;;;;;50.50;8.40;;;13.10;99.90;;;;;;5109213;27;20834;-73
2021/12/30 04:57:09;;;;;;;46.17;8.60;;;13.10;99.90;;;;;;5106376;27;20924;-73
2021/12/30 04:59:35;;;;;;;46.20;7.88;;;13.10;99.90;;;;;;5110201;27;20404;-72
2021/12/30 05:02:00;;;;;;;53.58;8.30;;;13.10;99.90;;;;;;5110213;27;20507;-73
2021/12/30 05:04:26;;;;;;;48.83;6.83;;;13.10;99.90;;;;;;5109553;28;20411;-71
2021/12/30 05:06:52;;;;;;;49.90;7.13;;;13.10;99.90;;;;;;5110262;27;20399;-71
2021/12/30 05:09:18;;;;;;;51.00;7.30;;;13.00;99.90;;;;;;5116320;27;20479;-72
2021/12/30 05:11:43;;;;;;;46.45;6.65;;;13.00;99.90;;;;;;5108545;27;20408;-72
2021/12/30 05:14:10;;;;;;;39.60;6.00;;;13.00;99.90;;;;;;5113978;27;20420;-72
2021/12/30 05:16:36;;;;;;;51.88;6.03;;;13.00;99.90;;;;;;5109289;27;20416;-73
2021/12/30 05:19:03;;;;;;;46.92;6.30;;;13.00;99.90;;;;;;5114654;27;20395;-71
2021/12/30 05:21:28;;;;;;;43.55;6.18;;;13.10;99.90;;;;;;5112781;27;20521;-72
2021/12/30 05:23:54;;;;;;;37.60;5.40;;;13.00;99.90;;;;;;5113503;27;20510;-71
2021/12/30 05:26:22;;;;;;;41.33;5.90;;;13.00;99.90;;;;;;5111804;27;20418;-72
2021/12/30 05:28:48;;;;;;;40.58;5.78;;;13.00;99.90;;;;;;5107036;28;20737;-72
2021/12/30 05:31:14;;;;;;;42.42;5.90;;;13.10;99.90;;;;;;5106825;27;20427;-71
2021/12/30 05:33:40;;;;;;;46.53;6.33;;;13.10;99.90;;;;;;5108867;27;20434;-72
2021/12/30 05:36:05;;;;;;;41.58;5.82;;;13.00;99.90;;;;;;5107519;27;20408;-72
2021/12/30 05:38:31;;;;;;;39.23;5.63;;;13.00;99.90;;;;;;5106927;27;20502;-72
2021/12/30 05:40:57;;;;;;;37.92;5.80;;;13.00;99.90;;;;;;5116268;27;20424;-71
2021/12/30 05:43:22;;;;;;;37.43;6.43;;;13.00;99.90;;;;;;5123114;27;20401;-74
2021/12/30 05:45:48;;;;;;;44.53;7.00;;;13.00;99.90;;;;;;5107302;27;20874;-72
2021/12/30 05:48:13;;;;;;;35.92;6.57;;;13.00;99.90;;;;;;5109248;27;20416;-72
2021/12/30 05:50:39;;;;;;;37.50;7.40;;;13.00;99.90;;;;;;5102159;28;20505;-72
2021/12/30 05:53:05;;;;;;;32.22;6.75;;;13.00;99.90;;;;;;5100896;27;20431;-72
2021/12/30 05:55:31;;;;;;;35.13;6.73;;;13.00;99.90;;;;;;5096093;27;20453;-73
2021/12/30 05:57:57;;;;;;;30.65;6.60;;;13.00;99.90;;;;;;5118960;27;20411;-73
2021/12/30 06:00:25;;;;;;;30.95;6.60;;;13.00;99.90;;;;;;5106365;27;20400;-71
2021/12/30 06:02:51;;;;;;;31.13;6.57;;;13.10;99.90;;;;;;5110252;27;20416;-75
2021/12/30 06:05:17;;;;;;;35.70;6.15;;;13.10;99.90;;;;;;5112942;27;20412;-73
2021/12/30 06:07:43;;;;;;;27.20;5.85;;;13.10;99.90;;;;;;5109855;27;20415;-75
2021/12/30 06:10:10;;;;;;;30.27;5.55;;;13.10;99.90;;;;;;5114892;27;20452;-74
2021/12/30 06:12:36;;;;;;;30.53;5.77;;;13.10;99.90;;;;;;5108171;27;20503;-74
2021/12/30 06:15:02;;;;;;;25.70;5.68;;;13.20;99.90;;;;;;5112648;27;20542;-76
2021/12/30 06:17:28;;;;;;;36.42;6.03;;;13.20;99.90;;;;;;5114469;27;20892;-74
2021/12/30 06:19:53;;;;;;;31.77;5.07;;;13.30;99.90;;;;;;5114895;27;20427;-75
2021/12/30 06:22:19;;;;;;;29.30;4.90;;;13.30;99.90;;;;;;5115511;27;20523;-74
2021/12/30 06:24:45;;;;;;;29.58;4.97;;;13.30;99.90;;;;;;5110880;27;20434;-73
2021/12/30 06:27:10;;;;;;;30.07;4.73;;;13.30;99.90;;;;;;5114611;27;20886;-73
2021/12/30 06:29:37;;;;;;;26.38;4.45;;;13.30;99.90;;;;;;5113782;27;20538;-73
2021/12/30 06:32:04;;;;;;;28.80;5.07;;;13.40;99.90;;;;;;5106957;27;20405;-73
2021/12/30 06:34:30;;;;;;;26.88;4.80;;;13.40;99.90;;;;;;5117430;27;20427;-73
2021/12/30 06:36:55;;;;;;;31.67;4.93;;;13.40;99.90;;;;;;5116681;27;20406;-72
2021/12/30 06:39:21;;;;;;;28.25;4.80;;;13.40;99.90;;;;;;5120700;27;21821;-74
2021/12/30 06:41:47;;;;;;;29.48;4.20;;;13.50;99.90;;;;;;5118471;27;20462;-74
2021/12/30 06:44:13;;;;;;;27.80;4.57;;;13.50;99.90;;;;;;5111363;27;20442;-74
2021/12/30 06:46:39;;;;;;;28.33;4.00;;;13.60;99.90;;;;;;5114269;27;20889;-74
2021/12/30 06:49:08;;;;;;;29.92;4.22;;;13.60;99.90;;;;;;5114730;27;20905;-74
2021/12/30 06:51:35;;;;;;;29.08;4.32;;;13.60;99.90;;;;;;5112746;27;20477;-74
2021/12/30 06:54:04;;;;;;;26.40;3.75;;;13.60;99.90;;;;;;5112789;27;20768;-73
2021/12/30 06:56:30;;;;;;;25.87;4.40;;;13.70;99.90;;;;;;5107822;27;20446;-73
2021/12/30 06:58:56;;;;;;;20.85;3.55;;;13.60;99.90;;;;;;5122310;27;20430;-72
2021/12/30 07:01:22;;;;;;;27.83;3.87;;;13.70;99.90;;;;;;5105688;28;20912;-75
2021/12/30 07:03:47;;;;;;;24.88;3.75;;;13.70;99.90;;;;;;5119424;27;20424;-74
2021/12/30 07:06:13;;;;;;;18.70;4.07;;;13.60;99.90;;;;;;5107692;27;20463;-75
2021/12/30 07:08:39;;;;;;;24.00;3.85;;;13.70;99.90;;;;;;5114715;27;20399;-74
2021/12/30 07:11:05;;;;;;;21.58;3.75;;;13.70;99.90;;;;;;5114797;27;20420;-75
2021/12/30 07:13:30;;;;;;;26.67;4.00;;;13.70;99.90;;;;;;5094398;27;20441;-75
2021/12/30 07:15:56;;;;;;;20.70;3.33;;;13.70;99.90;;;;;;5107315;27;20531;-74
2021/12/30 07:18:22;;;;;;;19.25;3.60;;;13.70;99.90;;;;;;5118543;27;20434;-74
2021/12/30 07:20:47;;;;;;;17.33;3.67;;;13.80;99.90;;;;;;5115963;27;20426;-74
2021/12/30 07:23:13;;;;;;;20.57;4.10;;;13.80;99.90;;;;;;5116602;27;20411;-73
2021/12/30 07:25:39;;;;;;;17.92;4.47;;;13.80;99.90;;;;;;5115288;27;20412;-75
2021/12/30 07:28:04;;;;;;;22.05;4.75;;;13.80;99.90;;;;;;5109421;28;20423;-74
2021/12/30 07:30:31;;;;;;;21.53;5.50;;;13.80;99.90;;;;;;5114135;28;20501;-74
2021/12/30 07:32:57;;;;;;;22.23;5.03;;;13.80;99.90;;;;;;5089225;28;20940;-74
2021/12/30 07:35:22;;;;;;;23.80;5.30;;;13.70;99.90;;;;;;5098199;28;20407;-72
2021/12/30 07:37:50;;;;;;;22.70;4.90;;;13.70;99.90;;;;;;5110281;27;20396;-75
2021/12/30 07:40:16;;;;;;;28.20;5.67;;;13.70;99.90;;;;;;5108046;28;20420;-74
2021/12/30 07:42:42;;;;;;;29.75;6.05;;;13.70;99.90;;;;;;5106939;28;20425;-75
2021/12/30 07:45:10;;;;;;;30.83;6.00;;;13.60;99.90;;;;;;5116362;28;20434;-74
2021/12/30 07:47:36;;;;;;;31.75;6.40;;;13.60;99.90;;;;;;5093947;28;20400;-72
2021/12/30 07:50:03;;;;;;;36.15;6.70;;;13.60;99.90;;;;;;5102832;28;20419;-73
2021/12/30 07:52:28;;;;;;;40.05;7.43;;;13.50;99.90;;;;;;5104772;28;20412;-73
2021/12/30 07:54:54;;;;;;;40.00;6.90;;;13.50;99.90;;;;;;5112099;28;20773;-72
2021/12/30 07:57:22;;;;;;;47.38;7.68;;;13.40;99.90;;;;;;5108397;28;20443;-72
2021/12/30 07:59:50;;;;;;;48.08;8.65;;;13.40;99.90;;;;;;5105822;28;20858;-73
2021/12/30 08:02:16;;;;;;;45.10;8.00;;;13.30;99.90;;;;;;5107728;28;20562;-74
2021/12/30 08:04:42;;;;;;;45.10;7.63;;;13.30;99.90;;;;;;5107500;28;20806;-74
2021/12/30 08:07:07;;;;;;;47.93;8.97;;;13.30;99.90;;;;;;5116817;27;20488;-74
2021/12/30 08:09:33;;;;;;;44.47;7.97;;;13.30;99.90;;;;;;5110123;27;20468;-73
2021/12/30 08:12:00;;;;;;;52.37;7.80;;;13.30;99.90;;;;;;5119213;27;20418;-75
2021/12/30 08:14:29;;;;;;;44.08;7.40;;;13.20;99.90;;;;;;5128157;27;20498;-74
2021/12/30 08:16:55;;;;;;;47.17;8.00;;;13.20;99.90;;;;;;5110494;27;20924;-73
2021/12/30 08:19:21;;;;;;;43.58;7.75;;;13.20;99.90;;;;;;5111218;28;20399;-75
2021/12/30 08:21:47;;;;;;;44.00;7.93;;;13.20;99.90;;;;;;5115060;27;20872;-75
2021/12/30 08:24:13;;;;;;;41.08;7.85;;;13.20;99.90;;;;;;5112054;27;20404;-75
2021/12/30 08:26:40;;;;;;;41.65;7.63;;;13.20;99.90;;;;;;5112787;27;20414;-75
2021/12/30 08:29:06;;;;;;;48.25;8.23;;;13.20;99.90;;;;;;5125291;27;20415;-73
2021/12/30 08:31:35;;;;;;;43.40;8.45;;;13.20;99.90;;;;;;5090914;28;20400;-74
2021/12/30 08:34:01;;;;;;;45.20;8.00;;;13.30;99.90;;;;;;5110480;27;21273;-71
2021/12/30 08:36:27;;;;;;;52.03;9.48;;;13.30;99.90;;;;;;5120489;27;20419;-73
2021/12/30 08:38:53;;;;;;;50.47;9.20;;;13.40;99.90;;;;;;5111661;27;20938;-75
2021/12/30 08:41:18;;;;;;;55.83;8.40;;;13.30;99.90;;;;;;5090073;28;20414;-72
2021/12/30 08:43:44;;;;;;;53.28;8.95;;;13.40;99.90;;;;;;5117579;27;20907;-73
2021/12/30 08:46:10;;;;;;;47.17;8.90;;;13.30;99.90;;;;;;5105312;28;20893;-75
2021/12/30 08:48:37;;;;;;;55.03;9.40;;;13.40;99.90;;;;;;5117338;27;20408;-74
2021/12/30 08:51:04;;;;;;;49.43;9.50;;;13.30;99.90;;;;;;5105833;27;20490;-74
2021/12/30 08:53:30;;;;;;;63.78;10.13;;;13.30;99.90;;;;;;5108547;27;20525;-73
2021/12/30 08:55:56;;;;;;;59.80;9.65;;;13.30;99.90;;;;;;5109550;27;23556;-73
2021/12/30 08:58:22;;;;;;;63.33;10.10;;;13.30;99.90;;;;;;5108236;27;20403;-74
2021/12/30 09:00:48;;;;;;;69.20;10.20;;;13.30;99.90;;;;;;5109887;27;20392;-74
2021/12/30 09:03:16;;;;;;;76.85;11.10;;;13.30;99.90;;;;;;5110086;27;20859;-74
2021/12/30 09:05:42;;;;;;;79.90;11.33;;;13.20;99.90;;;;;;5115567;27;20391;-75
2021/12/30 09:08:07;;;;;;;81.20;11.77;;;13.30;99.90;;;;;;5119628;27;20869;-74
2021/12/30 09:10:37;;;;;;;83.80;11.23;;;13.20;99.90;;;;;;5120040;27;20404;-74
2021/12/30 09:13:03;;;;;;;92.30;11.02;;;13.20;99.90;;;;;;5113970;27;20412;-74
2021/12/30 09:15:30;;;;;;;99.60;12.15;;;13.20;99.90;;;;;;5109587;28;20460;-75
2021/12/30 09:17:57;;;;;;;93.05;11.43;;;13.20;99.90;;;;;;5120993;27;20407;-74
2021/12/30 09:20:24;;;;;;;87.65;11.48;;;13.30;99.90;;;;;;5116518;27;20411;-73
2021/12/30 09:22:52;;;;;;;84.40;11.30;;;13.30;99.90;;;;;;5109525;27;20416;-73
2021/12/30 09:25:23;;;;;;;85.68;11.35;;;13.30;99.90;;;;;;5110508;27;20407;-75
2021/12/30 09:27:51;;;;;;;84.30;10.97;;;13.30;99.90;;;;;;5109547;27;20419;-72
2021/12/30 09:30:17;;;;;;;87.27;10.97;;;13.40;99.90;;;;;;5109619;28;20433;-73
2021/12/30 09:32:44;;;;;;;84.47;11.20;;;13.40;99.90;;;;;;5110630;27;21164;-74
2021/12/30 09:35:12;;;;;;;80.13;10.40;;;13.40;99.90;;;;;;5105215;27;20429;-74
2021/12/30 09:37:39;;;;;;;75.13;9.98;;;13.40;99.90;;;;;;5135172;27;20888;-76
2021/12/30 09:40:08;;;;;;;76.30;10.87;;;13.50;99.90;;;;;;5106102;27;20423;-74
2021/12/30 09:42:36;;;;;;;84.23;10.80;;;13.50;99.90;;;;;;5104856;27;20410;-75
2021/12/30 09:45:03;;;;;;;76.38;10.48;;;13.50;99.90;;;;;;5105631;27;20971;-74
2021/12/30 09:47:28;;;;;;;72.82;10.02;;;13.60;99.90;;;;;;5101828;27;20930;-74
2021/12/30 09:49:54;;;;;;;75.25;9.75;;;13.60;99.90;;;;;;5098982;28;20477;-73
2021/12/30 09:52:20;;;;;;;65.90;9.27;;;13.60;99.90;;;;;;5094009;28;20405;-73
2021/12/30 09:54:46;;;;;;;72.95;9.77;;;13.60;99.90;;;;;;5100429;27;20392;-74
2021/12/30 09:57:12;;;;;;;66.70;9.50;;;13.70;99.90;;;;;;5102966;28;20415;-74
2021/12/30 09:59:37;;;;;;;63.78;9.23;;;13.70;99.90;;;;;;5091919;28;20393;-74
2021/12/30 10:02:04;;;;;;;66.63;9.37;;;13.70;99.90;;;;;;5105749;27;20480;-74
2021/12/30 10:04:34;;;;;;;65.95;9.82;;;13.70;99.90;;;;;;5105864;27;20458;-75
2021/12/30 10:07:03;;;;;;;64.80;8.63;;;13.80;99.90;;;;;;5103466;28;20421;-74
2021/12/30 10:09:53;;;;;;;57.95;8.98;;;13.80;99.90;;;;;;5102663;28;20859;-72
2021/12/30 10:12:39;;;;;;;65.50;8.68;;;13.80;99.90;;;;;;5103438;27;20542;-72
2021/12/30 10:15:06;;;;;;;54.45;7.90;;;13.80;99.90;;;;;;5104244;27;20400;-75
2021/12/30 10:17:31;;;;;;;62.35;8.35;;;13.90;99.90;;;;;;5098894;28;20422;-74
2021/12/30 10:20:18;;;;;;;67.43;8.77;;;13.90;99.90;;;;;;5101656;27;20430;-72
2021/12/30 10:22:46;;;;;;;66.18;8.15;;;13.90;99.90;;;;;;5100898;28;20422;-73
2021/12/30 10:25:40;;;;;;;64.20;9.20;;;13.90;99.90;;;;;;5098054;28;20409;-73
2021/12/30 10:28:26;;;;;;;70.10;9.75;;;13.90;99.90;;;;;;5097721;27;20438;-76
2021/12/30 10:31:00;;;;;;;56.90;8.60;;;13.90;99.90;;;;;;5103356;27;20410;-73
2021/12/30 10:33:28;;;;;;;62.28;9.23;;;13.90;99.90;;;;;;5103731;27;20411;-72
2021/12/30 10:35:55;;;;;;;72.32;9.35;;;13.80;99.90;;;;;;5102453;28;20407;-73
2021/12/30 10:38:21;;;;;;;69.75;10.18;;;13.80;99.90;;;;;;5099808;27;20463;-73
2021/12/30 10:40:51;;;;;;;65.67;9.43;;;13.80;99.90;;;;;;5100463;27;20436;-73
2021/12/30 10:46:26;;;;;;;72.72;10.30;;;13.70;99.90;;;;;;5103597;28;20419;-74
2021/12/30 10:49:05;;;;;;;69.93;10.43;;;13.70;99.90;;;;;;5107814;28;21107;-71
2021/12/30 10:51:43;;;;;;;65.80;9.95;;;13.70;99.90;;;;;;5105678;28;20520;-71
2021/12/30 10:54:13;;;;;;;65.50;9.70;;;13.70;99.90;;;;;;5107447;28;20979;-71
2021/12/30 10:57:00;;;;;;;67.10;9.75;;;13.70;99.90;;;;;;5108504;27;20892;-73
2021/12/30 10:59:31;;;;;;;68.10;10.03;;;13.70;99.90;;;;;;5096367;28;20404;-72
2021/12/30 11:02:04;;;;;;;65.10;10.27;;;13.80;99.90;;;;;;5105437;28;20464;-71
2021/12/30 11:04:38;;;;;;;64.63;10.20;;;13.80;99.90;;;;;;5106040;28;20402;-71
2021/12/30 11:07:07;;;;;;;66.50;10.10;;;13.70;99.90;;;;;;5111009;27;20411;-71
2021/12/30 11:09:33;;;;;;;65.97;9.75;;;13.70;99.90;;;;;;5107636;28;20408;-71
2021/12/30 11:12:02;;;;;;;61.33;9.32;;;13.70;99.90;;;;;;5105417;28;20768;-73
2021/12/30 11:14:34;;;;;;;61.70;9.60;;;13.70;99.90;;;;;;5107003;28;20411;-74
2021/12/30 11:17:06;;;;;;;64.55;9.20;;;13.70;99.90;;;;;;5091956;28;20883;-74
2021/12/30 11:19:35;;;;;;;56.60;9.55;;;13.70;99.90;;;;;;5104894;28;20749;-71
2021/12/30 11:22:04;;;;;;;67.43;9.95;;;13.60;99.90;;;;;;5112404;27;20412;-74
2021/12/30 11:24:31;;;;;;;69.80;10.43;;;13.60;99.90;;;;;;5106015;28;20900;-73
2021/12/30 11:26:57;;;;;;;70.97;10.02;;;13.70;99.90;;;;;;5104028;28;20487;-73
2021/12/30 11:29:24;;;;;;;65.95;9.55;;;13.70;99.90;;;;;;5107970;28;20396;-73
2021/12/30 11:31:51;;;;;;;63.25;9.55;;;13.70;99.90;;;;;;5106786;28;20472;-73
2021/12/30 11:34:18;;;;;;;68.00;10.17;;;13.80;99.90;;;;;;5106284;28;20417;-74
2021/12/30 11:36:44;;;;;;;66.13;9.97;;;13.80;99.90;;;;;;5105249;28;20943;-74
2021/12/30 11:39:18;;;;;;;61.88;9.05;;;13.70;99.90;;;;;;5108555;27;20402;-73
2021/12/30 11:41:51;;;;;;;64.32;9.85;;;13.70;99.90;;;;;;5115375;27;20418;-74
2021/12/30 11:44:48;;;;;;;68.10;9.82;;;13.70;99.90;;;;;;5125074;27;20406;-72
2021/12/30 11:47:32;;;;;;;69.20;10.02;;;13.60;99.90;;;;;;5104632;27;20485;-70
2021/12/30 11:49:59;;;;;;;69.85;10.07;;;13.70;99.90;;;;;;5108859;28;20408;-74
2021/12/30 11:52:46;;;;;;;68.70;9.82;;;13.70;99.90;;;;;;5113559;27;20422;-73
2021/12/30 11:55:47;;;;;;;71.95;10.70;;;13.60;99.90;;;;;;5113147;27;20751;-73
2021/12/30 11:58:28;;;;;;;68.13;9.93;;;13.60;99.90;;;;;;5091488;28;20404;-72
2021/12/30 12:01:00;;;;;;;69.85;9.65;;;13.60;99.90;;;;;;5104969;27;20409;-74
2021/12/30 12:03:38;;;;;;;69.53;9.77;;;13.50;99.90;;;;;;5114616;27;20418;-73
2021/12/30 12:06:28;;;;;;;64.85;9.25;;;13.50;99.90;;;;;;5112223;27;20508;-73
2021/12/30 12:09:22;;;;;;;67.78;9.82;;;13.50;99.90;;;;;;5110325;28;20407;-73
2021/12/30 12:12:02;;;;;;;65.18;9.30;;;13.50;99.90;;;;;;5109170;28;20738;-73
2021/12/30 12:14:54;;;;;;;64.93;8.93;;;13.40;99.90;;;;;;5111715;27;20406;-73
2021/12/30 12:17:41;;;;;;;66.20;9.02;;;13.40;99.90;;;;;;5113583;27;20407;-73
2021/12/30 12:20:16;;;;;;;65.65;8.85;;;13.40;99.90;;;;;;5123496;27;20407;-73
2021/12/30 12:22:42;;;;;;;62.28;10.13;;;13.30;99.90;;;;;;5107422;27;21301;-73
2021/12/30 12:25:11;;;;;;;59.67;9.20;;;13.30;99.90;;;;;;5109323;28;20392;-73
2021/12/30 12:27:40;;;;;;;63.13;9.77;;;13.40;99.90;;;;;;5090320;28;20771;-73
2021/12/30 12:30:28;;;;;;;66.78;9.20;;;13.40;99.90;;;;;;5104482;28;20480;-72
2021/12/30 12:32:57;;;;;;;60.25;9.10;;;13.40;99.90;;;;;;5090102;28;20458;-72
2021/12/30 12:35:29;;;;;;;71.82;9.52;;;13.40;99.90;;;;;;5111500;27;20399;-73
2021/12/30 12:38:00;;;;;;;63.92;9.57;;;13.40;99.90;;;;;;5107417;27;20896;-73
2021/12/30 12:40:37;;;;;;;69.00;9.38;;;13.40;99.90;;;;;;5089973;28;20779;-72